sensor_id;sensor_type;location;lat;lon;timestamp;P1;durP1;ratioP1;P2;durP2;ratioP2
46230;SDS011;31949;51.404;-0.038;2023-06-14T00:01:59;5.07;;;3.10;;
46230;SDS011;31949;51.404;-0.038;2023-06-14T00:04:26;4.95;;;3.22;;
46230;SDS011;31949;51.404;-0.038;2023-06-14T00:06:55;4.57;;;3.13;;
46230;SDS011;31949;51.404;-0.038;2023-06-14T00:09:23;5.38;;;2.78;;
46230;SDS011;31949;51.404;-0.038;2023-06-14T00:11:50;7.05;;;2.92;;
46230;SDS011;31949;51.404;-0.038;2023-06-14T00:14:17;6.00;;;2.50;;
46230;SDS011;31949;51.404;-0.038;2023-06-14T00:16:45;8.05;;;2.85;;
46230;SDS011;31949;51.404;-0.038;2023-06-14T00:19:12;4.70;;;2.63;;
46230;SDS011;31949;51.404;-0.038;2023-06-14T00:21:39;4.55;;;1.98;;
46230;SDS011;31949;51.404;-0.038;2023-06-14T00:24:07;5.95;;;2.92;;
46230;SDS011;31949;51.404;-0.038;2023-06-14T00:26:34;5.07;;;2.10;;
46230;SDS011;31949;51.404;-0.038;2023-06-14T00:29:02;7.20;;;2.45;;
46230;SDS011;31949;51.404;-0.038;2023-06-14T00:31:29;3.95;;;2.67;;
46230;SDS011;31949;51.404;-0.038;2023-06-14T00:33:57;4.75;;;2.22;;
46230;SDS011;31949;51.404;-0.038;2023-06-14T00:36:24;3.80;;;2.40;;
46230;SDS011;31949;51.404;-0.038;2023-06-14T00:38:51;5.50;;;2.30;;
46230;SDS011;31949;51.404;-0.038;2023-06-14T00:41:19;8.48;;;3.00;;
46230;SDS011;31949;51.404;-0.038;2023-06-14T00:43:46;3.25;;;2.38;;
46230;SDS011;31949;51.404;-0.038;2023-06-14T00:46:14;7.57;;;2.60;;
46230;SDS011;31949;51.404;-0.038;2023-06-14T00:48:41;3.97;;;2.22;;
46230;SDS011;31949;51.404;-0.038;2023-06-14T00:51:09;6.57;;;2.90;;
46230;SDS011;31949;51.404;-0.038;2023-06-14T00:53:37;3.72;;;1.83;;
46230;SDS011;31949;51.404;-0.038;2023-06-14T00:56:06;6.00;;;2.05;;
46230;SDS011;31949;51.404;-0.038;2023-06-14T00:58:33;6.68;;;2.58;;
46230;SDS011;31949;51.404;-0.038;2023-06-14T01:01:01;4.13;;;2.47;;
46230;SDS011;31949;51.404;-0.038;2023-06-14T01:03:29;9.50;;;2.60;;
46230;SDS011;31949;51.404;-0.038;2023-06-14T01:09:19;4.80;;;2.85;;
46230;SDS011;31949;51.404;-0.038;2023-06-14T01:12:04;7.10;;;2.85;;
46230;SDS011;31949;51.404;-0.038;2023-06-14T01:14:39;3.60;;;2.20;;
46230;SDS011;31949;51.404;-0.038;2023-06-14T01:17:08;7.05;;;2.70;;
46230;SDS011;31949;51.404;-0.038;2023-06-14T01:19:43;5.57;;;2.40;;
46230;SDS011;31949;51.404;-0.038;2023-06-14T01:22:13;4.53;;;2.15;;
46230;SDS011;31949;51.404;-0.038;2023-06-14T01:24:41;5.78;;;2.42;;
46230;SDS011;31949;51.404;-0.038;2023-06-14T01:27:11;6.30;;;2.65;;
46230;SDS011;31949;51.404;-0.038;2023-06-14T01:29:40;6.53;;;2.85;;
46230;SDS011;31949;51.404;-0.038;2023-06-14T01:32:14;4.82;;;2.58;;
46230;SDS011;31949;51.404;-0.038;2023-06-14T01:34:41;7.43;;;2.47;;
46230;SDS011;31949;51.404;-0.038;2023-06-14T01:37:09;10.80;;;3.05;;
46230;SDS011;31949;51.404;-0.038;2023-06-14T01:39:38;5.18;;;2.88;;
46230;SDS011;31949;51.404;-0.038;2023-06-14T01:42:06;7.57;;;3.17;;
46230;SDS011;31949;51.404;-0.038;2023-06-14T01:44:33;5.65;;;2.47;;
46230;SDS011;31949;51.404;-0.038;2023-06-14T01:47:01;8.32;;;3.20;;
46230;SDS011;31949;51.404;-0.038;2023-06-14T01:49:28;6.45;;;2.60;;
46230;SDS011;31949;51.404;-0.038;2023-06-14T01:51:56;8.02;;;2.80;;
46230;SDS011;31949;51.404;-0.038;2023-06-14T01:54:23;5.50;;;3.25;;
46230;SDS011;31949;51.404;-0.038;2023-06-14T01:56:52;11.50;;;3.35;;
46230;SDS011;31949;51.404;-0.038;2023-06-14T01:59:20;6.60;;;3.08;;
46230;SDS011;31949;51.404;-0.038;2023-06-14T02:01:47;9.48;;;2.85;;
46230;SDS011;31949;51.404;-0.038;2023-06-14T02:04:14;13.40;;;3.33;;
46230;SDS011;31949;51.404;-0.038;2023-06-14T02:06:41;9.35;;;3.53;;
46230;SDS011;31949;51.404;-0.038;2023-06-14T02:09:10;6.13;;;2.78;;
46230;SDS011;31949;51.404;-0.038;2023-06-14T02:11:38;8.02;;;3.42;;
46230;SDS011;31949;51.404;-0.038;2023-06-14T02:14:05;9.85;;;3.72;;
46230;SDS011;31949;51.404;-0.038;2023-06-14T02:16:33;7.75;;;3.15;;
46230;SDS011;31949;51.404;-0.038;2023-06-14T02:19:02;6.30;;;3.17;;
46230;SDS011;31949;51.404;-0.038;2023-06-14T02:21:30;9.48;;;4.07;;
46230;SDS011;31949;51.404;-0.038;2023-06-14T02:23:57;4.70;;;3.13;;
46230;SDS011;31949;51.404;-0.038;2023-06-14T02:26:27;4.40;;;2.78;;
46230;SDS011;31949;51.404;-0.038;2023-06-14T02:28:55;5.28;;;3.00;;
46230;SDS011;31949;51.404;-0.038;2023-06-14T02:31:22;6.95;;;3.63;;
46230;SDS011;31949;51.404;-0.038;2023-06-14T02:33:50;6.07;;;3.42;;
46230;SDS011;31949;51.404;-0.038;2023-06-14T02:36:19;4.88;;;2.95;;
46230;SDS011;31949;51.404;-0.038;2023-06-14T02:38:47;6.38;;;2.83;;
46230;SDS011;31949;51.404;-0.038;2023-06-14T02:41:14;7.50;;;3.45;;
46230;SDS011;31949;51.404;-0.038;2023-06-14T02:43:42;6.38;;;3.05;;
46230;SDS011;31949;51.404;-0.038;2023-06-14T02:46:09;10.15;;;3.35;;
46230;SDS011;31949;51.404;-0.038;2023-06-14T02:48:37;7.45;;;3.20;;
46230;SDS011;31949;51.404;-0.038;2023-06-14T02:51:05;7.95;;;3.45;;
46230;SDS011;31949;51.404;-0.038;2023-06-14T02:53:32;3.63;;;2.53;;
46230;SDS011;31949;51.404;-0.038;2023-06-14T02:55:59;8.32;;;3.20;;
46230;SDS011;31949;51.404;-0.038;2023-06-14T02:58:28;9.77;;;3.60;;
46230;SDS011;31949;51.404;-0.038;2023-06-14T03:00:55;12.75;;;3.40;;
46230;SDS011;31949;51.404;-0.038;2023-06-14T03:03:23;7.32;;;3.20;;
46230;SDS011;31949;51.404;-0.038;2023-06-14T03:05:55;10.15;;;3.30;;
46230;SDS011;31949;51.404;-0.038;2023-06-14T03:08:26;5.78;;;2.80;;
46230;SDS011;31949;51.404;-0.038;2023-06-14T03:10:59;4.38;;;2.67;;
46230;SDS011;31949;51.404;-0.038;2023-06-14T03:13:29;10.10;;;3.20;;
46230;SDS011;31949;51.404;-0.038;2023-06-14T03:15:59;7.07;;;3.38;;
46230;SDS011;31949;51.404;-0.038;2023-06-14T03:18:31;6.22;;;3.35;;
46230;SDS011;31949;51.404;-0.038;2023-06-14T03:21:04;5.55;;;3.03;;
46230;SDS011;31949;51.404;-0.038;2023-06-14T03:23:32;6.95;;;4.10;;
46230;SDS011;31949;51.404;-0.038;2023-06-14T03:26:00;9.68;;;3.55;;
46230;SDS011;31949;51.404;-0.038;2023-06-14T03:28:27;6.72;;;3.55;;
46230;SDS011;31949;51.404;-0.038;2023-06-14T03:30:56;6.07;;;4.07;;
46230;SDS011;31949;51.404;-0.038;2023-06-14T03:33:24;8.70;;;3.33;;
46230;SDS011;31949;51.404;-0.038;2023-06-14T03:35:53;8.10;;;3.63;;
46230;SDS011;31949;51.404;-0.038;2023-06-14T03:38:20;6.68;;;3.70;;
46230;SDS011;31949;51.404;-0.038;2023-06-14T03:40:49;6.90;;;3.28;;
46230;SDS011;31949;51.404;-0.038;2023-06-14T03:43:16;6.45;;;3.25;;
46230;SDS011;31949;51.404;-0.038;2023-06-14T03:45:43;7.78;;;3.38;;
46230;SDS011;31949;51.404;-0.038;2023-06-14T03:48:11;6.80;;;3.65;;
46230;SDS011;31949;51.404;-0.038;2023-06-14T03:50:39;4.60;;;3.38;;
46230;SDS011;31949;51.404;-0.038;2023-06-14T03:53:06;7.05;;;3.30;;
46230;SDS011;31949;51.404;-0.038;2023-06-14T03:55:37;7.30;;;3.85;;
46230;SDS011;31949;51.404;-0.038;2023-06-14T03:58:31;8.43;;;3.97;;
46230;SDS011;31949;51.404;-0.038;2023-06-14T04:00:59;6.75;;;3.28;;
46230;SDS011;31949;51.404;-0.038;2023-06-14T04:03:30;5.72;;;3.25;;
46230;SDS011;31949;51.404;-0.038;2023-06-14T04:05:59;12.15;;;3.60;;
46230;SDS011;31949;51.404;-0.038;2023-06-14T04:08:27;6.82;;;2.58;;
46230;SDS011;31949;51.404;-0.038;2023-06-14T04:10:54;6.78;;;3.67;;
46230;SDS011;31949;51.404;-0.038;2023-06-14T04:13:21;8.77;;;3.88;;
46230;SDS011;31949;51.404;-0.038;2023-06-14T04:15:49;6.47;;;3.78;;
46230;SDS011;31949;51.404;-0.038;2023-06-14T04:18:22;6.90;;;4.10;;
46230;SDS011;31949;51.404;-0.038;2023-06-14T04:20:50;8.50;;;3.70;;
46230;SDS011;31949;51.404;-0.038;2023-06-14T04:23:17;8.50;;;4.03;;
46230;SDS011;31949;51.404;-0.038;2023-06-14T04:25:45;9.82;;;5.03;;
46230;SDS011;31949;51.404;-0.038;2023-06-14T04:28:15;9.52;;;3.85;;
46230;SDS011;31949;51.404;-0.038;2023-06-14T04:30:45;10.05;;;4.20;;
46230;SDS011;31949;51.404;-0.038;2023-06-14T04:33:15;5.63;;;3.58;;
46230;SDS011;31949;51.404;-0.038;2023-06-14T04:35:44;8.30;;;4.10;;
46230;SDS011;31949;51.404;-0.038;2023-06-14T04:38:15;7.20;;;3.53;;
46230;SDS011;31949;51.404;-0.038;2023-06-14T04:40:42;9.35;;;3.85;;
46230;SDS011;31949;51.404;-0.038;2023-06-14T04:43:14;9.52;;;3.50;;
46230;SDS011;31949;51.404;-0.038;2023-06-14T04:45:44;6.38;;;3.70;;
46230;SDS011;31949;51.404;-0.038;2023-06-14T04:48:13;7.60;;;4.35;;
46230;SDS011;31949;51.404;-0.038;2023-06-14T04:50:41;7.38;;;3.58;;
46230;SDS011;31949;51.404;-0.038;2023-06-14T04:53:10;8.95;;;5.18;;
46230;SDS011;31949;51.404;-0.038;2023-06-14T04:55:37;7.78;;;3.45;;
46230;SDS011;31949;51.404;-0.038;2023-06-14T04:58:05;5.60;;;4.15;;
46230;SDS011;31949;51.404;-0.038;2023-06-14T05:00:33;8.50;;;3.72;;
46230;SDS011;31949;51.404;-0.038;2023-06-14T05:03:01;13.90;;;5.85;;
46230;SDS011;31949;51.404;-0.038;2023-06-14T05:05:29;9.90;;;4.18;;
46230;SDS011;31949;51.404;-0.038;2023-06-14T05:07:56;7.13;;;3.92;;
46230;SDS011;31949;51.404;-0.038;2023-06-14T05:10:24;8.30;;;4.32;;
46230;SDS011;31949;51.404;-0.038;2023-06-14T05:12:51;7.45;;;5.07;;
46230;SDS011;31949;51.404;-0.038;2023-06-14T05:15:19;12.07;;;5.68;;
46230;SDS011;31949;51.404;-0.038;2023-06-14T05:17:51;11.32;;;5.60;;
46230;SDS011;31949;51.404;-0.038;2023-06-14T05:20:22;8.50;;;4.47;;
46230;SDS011;31949;51.404;-0.038;2023-06-14T05:22:54;11.02;;;4.72;;
46230;SDS011;31949;51.404;-0.038;2023-06-14T05:25:23;9.98;;;5.10;;
46230;SDS011;31949;51.404;-0.038;2023-06-14T05:27:50;11.48;;;5.25;;
46230;SDS011;31949;51.404;-0.038;2023-06-14T05:30:17;10.27;;;4.85;;
46230;SDS011;31949;51.404;-0.038;2023-06-14T05:32:45;10.43;;;5.00;;
46230;SDS011;31949;51.404;-0.038;2023-06-14T05:35:12;7.15;;;5.07;;
46230;SDS011;31949;51.404;-0.038;2023-06-14T05:37:40;6.22;;;4.32;;
46230;SDS011;31949;51.404;-0.038;2023-06-14T05:40:07;10.45;;;4.47;;
46230;SDS011;31949;51.404;-0.038;2023-06-14T05:42:35;9.25;;;4.75;;
46230;SDS011;31949;51.404;-0.038;2023-06-14T05:45:03;6.30;;;4.18;;
46230;SDS011;31949;51.404;-0.038;2023-06-14T05:47:31;7.05;;;4.45;;
46230;SDS011;31949;51.404;-0.038;2023-06-14T05:49:59;9.00;;;5.25;;
46230;SDS011;31949;51.404;-0.038;2023-06-14T05:52:26;11.73;;;4.93;;
46230;SDS011;31949;51.404;-0.038;2023-06-14T05:54:55;9.93;;;4.60;;
46230;SDS011;31949;51.404;-0.038;2023-06-14T05:57:22;12.45;;;5.53;;
46230;SDS011;31949;51.404;-0.038;2023-06-14T05:59:49;10.75;;;5.05;;
46230;SDS011;31949;51.404;-0.038;2023-06-14T06:02:17;13.02;;;5.80;;
46230;SDS011;31949;51.404;-0.038;2023-06-14T06:04:44;7.97;;;4.53;;
46230;SDS011;31949;51.404;-0.038;2023-06-14T06:07:11;14.52;;;5.28;;
46230;SDS011;31949;51.404;-0.038;2023-06-14T06:09:39;9.27;;;4.88;;
46230;SDS011;31949;51.404;-0.038;2023-06-14T06:12:06;8.38;;;4.57;;
46230;SDS011;31949;51.404;-0.038;2023-06-14T06:14:33;8.23;;;4.43;;
46230;SDS011;31949;51.404;-0.038;2023-06-14T06:17:01;9.82;;;5.35;;
46230;SDS011;31949;51.404;-0.038;2023-06-14T06:19:28;12.20;;;5.10;;
46230;SDS011;31949;51.404;-0.038;2023-06-14T06:21:55;10.23;;;4.95;;
46230;SDS011;31949;51.404;-0.038;2023-06-14T06:24:22;9.43;;;4.82;;
46230;SDS011;31949;51.404;-0.038;2023-06-14T06:26:49;12.43;;;4.72;;
46230;SDS011;31949;51.404;-0.038;2023-06-14T06:29:17;10.63;;;4.50;;
46230;SDS011;31949;51.404;-0.038;2023-06-14T06:31:44;6.35;;;3.53;;
46230;SDS011;31949;51.404;-0.038;2023-06-14T06:34:12;6.95;;;4.30;;
46230;SDS011;31949;51.404;-0.038;2023-06-14T06:36:39;7.97;;;3.95;;
46230;SDS011;31949;51.404;-0.038;2023-06-14T06:39:06;9.52;;;4.50;;
46230;SDS011;31949;51.404;-0.038;2023-06-14T06:41:37;5.75;;;3.65;;
46230;SDS011;31949;51.404;-0.038;2023-06-14T06:44:06;15.02;;;5.63;;
46230;SDS011;31949;51.404;-0.038;2023-06-14T06:46:33;10.50;;;4.10;;
46230;SDS011;31949;51.404;-0.038;2023-06-14T06:49:01;9.18;;;5.00;;
46230;SDS011;31949;51.404;-0.038;2023-06-14T06:51:28;9.70;;;4.32;;
46230;SDS011;31949;51.404;-0.038;2023-06-14T06:53:56;10.20;;;5.10;;
46230;SDS011;31949;51.404;-0.038;2023-06-14T06:56:23;9.40;;;4.10;;
46230;SDS011;31949;51.404;-0.038;2023-06-14T06:58:51;13.73;;;5.20;;
46230;SDS011;31949;51.404;-0.038;2023-06-14T07:01:18;6.90;;;3.75;;
46230;SDS011;31949;51.404;-0.038;2023-06-14T07:03:46;13.68;;;5.45;;
46230;SDS011;31949;51.404;-0.038;2023-06-14T07:06:13;11.18;;;4.45;;
46230;SDS011;31949;51.404;-0.038;2023-06-14T07:08:41;7.72;;;4.10;;
46230;SDS011;31949;51.404;-0.038;2023-06-14T07:11:08;11.43;;;4.47;;
46230;SDS011;31949;51.404;-0.038;2023-06-14T07:13:35;8.30;;;4.43;;
46230;SDS011;31949;51.404;-0.038;2023-06-14T07:16:03;6.60;;;4.13;;
46230;SDS011;31949;51.404;-0.038;2023-06-14T07:18:31;11.25;;;5.95;;
46230;SDS011;31949;51.404;-0.038;2023-06-14T07:20:58;8.20;;;4.38;;
46230;SDS011;31949;51.404;-0.038;2023-06-14T07:23:26;10.07;;;4.07;;
46230;SDS011;31949;51.404;-0.038;2023-06-14T07:25:54;12.50;;;5.05;;
46230;SDS011;31949;51.404;-0.038;2023-06-14T07:28:21;13.60;;;6.15;;
46230;SDS011;31949;51.404;-0.038;2023-06-14T07:30:48;15.60;;;4.90;;
46230;SDS011;31949;51.404;-0.038;2023-06-14T07:33:16;10.55;;;4.90;;
46230;SDS011;31949;51.404;-0.038;2023-06-14T07:35:43;18.95;;;5.93;;
46230;SDS011;31949;51.404;-0.038;2023-06-14T07:38:10;12.00;;;5.00;;
46230;SDS011;31949;51.404;-0.038;2023-06-14T07:40:37;13.27;;;5.38;;
46230;SDS011;31949;51.404;-0.038;2023-06-14T07:43:05;7.85;;;4.75;;
46230;SDS011;31949;51.404;-0.038;2023-06-14T07:45:32;11.93;;;4.90;;
46230;SDS011;31949;51.404;-0.038;2023-06-14T07:47:59;10.52;;;4.38;;
46230;SDS011;31949;51.404;-0.038;2023-06-14T07:50:26;14.35;;;4.90;;
46230;SDS011;31949;51.404;-0.038;2023-06-14T07:52:54;12.90;;;5.18;;
46230;SDS011;31949;51.404;-0.038;2023-06-14T07:55:21;14.00;;;5.05;;
46230;SDS011;31949;51.404;-0.038;2023-06-14T07:57:48;7.60;;;4.13;;
46230;SDS011;31949;51.404;-0.038;2023-06-14T08:00:16;11.35;;;4.68;;
46230;SDS011;31949;51.404;-0.038;2023-06-14T08:02:44;13.02;;;6.15;;
46230;SDS011;31949;51.404;-0.038;2023-06-14T08:05:12;9.45;;;4.57;;
46230;SDS011;31949;51.404;-0.038;2023-06-14T08:07:40;10.90;;;5.32;;
46230;SDS011;31949;51.404;-0.038;2023-06-14T08:10:08;17.73;;;5.53;;
46230;SDS011;31949;51.404;-0.038;2023-06-14T08:12:36;15.77;;;5.57;;
46230;SDS011;31949;51.404;-0.038;2023-06-14T08:15:03;8.75;;;4.68;;
46230;SDS011;31949;51.404;-0.038;2023-06-14T08:17:34;9.98;;;4.05;;
46230;SDS011;31949;51.404;-0.038;2023-06-14T08:20:02;13.98;;;5.05;;
46230;SDS011;31949;51.404;-0.038;2023-06-14T08:22:32;6.53;;;4.13;;
46230;SDS011;31949;51.404;-0.038;2023-06-14T08:25:02;9.93;;;5.50;;
46230;SDS011;31949;51.404;-0.038;2023-06-14T08:27:30;9.88;;;4.82;;
46230;SDS011;31949;51.404;-0.038;2023-06-14T08:29:58;14.68;;;6.63;;
46230;SDS011;31949;51.404;-0.038;2023-06-14T08:32:25;12.07;;;5.43;;
46230;SDS011;31949;51.404;-0.038;2023-06-14T08:34:52;10.23;;;5.75;;
46230;SDS011;31949;51.404;-0.038;2023-06-14T08:37:31;12.82;;;5.70;;
46230;SDS011;31949;51.404;-0.038;2023-06-14T08:40:00;11.05;;;4.43;;
46230;SDS011;31949;51.404;-0.038;2023-06-14T08:42:32;9.93;;;4.82;;
46230;SDS011;31949;51.404;-0.038;2023-06-14T08:45:02;11.95;;;5.95;;
46230;SDS011;31949;51.404;-0.038;2023-06-14T08:47:30;18.55;;;6.25;;
46230;SDS011;31949;51.404;-0.038;2023-06-14T08:50:07;11.05;;;4.78;;
46230;SDS011;31949;51.404;-0.038;2023-06-14T08:52:54;9.82;;;5.18;;
46230;SDS011;31949;51.404;-0.038;2023-06-14T08:55:27;9.65;;;5.30;;
46230;SDS011;31949;51.404;-0.038;2023-06-14T08:57:57;15.57;;;6.03;;
46230;SDS011;31949;51.404;-0.038;2023-06-14T09:00:25;12.35;;;6.40;;
46230;SDS011;31949;51.404;-0.038;2023-06-14T09:02:53;9.73;;;4.72;;
46230;SDS011;31949;51.404;-0.038;2023-06-14T09:05:25;13.30;;;7.23;;
46230;SDS011;31949;51.404;-0.038;2023-06-14T09:07:53;15.63;;;6.40;;
46230;SDS011;31949;51.404;-0.038;2023-06-14T09:10:22;11.32;;;4.82;;
46230;SDS011;31949;51.404;-0.038;2023-06-14T09:12:50;12.20;;;5.97;;
46230;SDS011;31949;51.404;-0.038;2023-06-14T09:15:18;8.75;;;5.35;;
46230;SDS011;31949;51.404;-0.038;2023-06-14T09:17:45;10.57;;;5.47;;
46230;SDS011;31949;51.404;-0.038;2023-06-14T09:20:12;8.52;;;4.40;;
46230;SDS011;31949;51.404;-0.038;2023-06-14T09:22:44;7.07;;;4.95;;
46230;SDS011;31949;51.404;-0.038;2023-06-14T09:25:12;7.72;;;5.18;;
46230;SDS011;31949;51.404;-0.038;2023-06-14T09:28:02;9.02;;;4.68;;
46230;SDS011;31949;51.404;-0.038;2023-06-14T09:30:32;7.07;;;4.53;;
46230;SDS011;31949;51.404;-0.038;2023-06-14T09:33:00;10.75;;;5.63;;
46230;SDS011;31949;51.404;-0.038;2023-06-14T09:35:28;11.75;;;5.63;;
46230;SDS011;31949;51.404;-0.038;2023-06-14T09:37:57;15.20;;;4.72;;
46230;SDS011;31949;51.404;-0.038;2023-06-14T09:40:24;11.90;;;4.95;;
46230;SDS011;31949;51.404;-0.038;2023-06-14T09:42:53;12.30;;;4.07;;
46230;SDS011;31949;51.404;-0.038;2023-06-14T09:45:21;11.05;;;4.95;;
46230;SDS011;31949;51.404;-0.038;2023-06-14T09:47:50;9.13;;;5.07;;
46230;SDS011;31949;51.404;-0.038;2023-06-14T09:53:02;10.55;;;4.32;;
46230;SDS011;31949;51.404;-0.038;2023-06-14T09:55:34;10.18;;;5.90;;
46230;SDS011;31949;51.404;-0.038;2023-06-14T09:58:07;11.55;;;5.05;;
46230;SDS011;31949;51.404;-0.038;2023-06-14T10:00:37;15.27;;;5.05;;
46230;SDS011;31949;51.404;-0.038;2023-06-14T10:03:14;10.93;;;5.20;;
46230;SDS011;31949;51.404;-0.038;2023-06-14T10:05:47;8.15;;;5.10;;
46230;SDS011;31949;51.404;-0.038;2023-06-14T10:08:23;8.40;;;4.63;;
46230;SDS011;31949;51.404;-0.038;2023-06-14T10:10:53;8.32;;;4.90;;
46230;SDS011;31949;51.404;-0.038;2023-06-14T10:13:22;12.60;;;5.40;;
46230;SDS011;31949;51.404;-0.038;2023-06-14T10:21:18;11.32;;;6.20;;
46230;SDS011;31949;51.404;-0.038;2023-06-14T10:23:47;7.43;;;5.00;;
46230;SDS011;31949;51.404;-0.038;2023-06-14T10:26:18;10.15;;;5.45;;
46230;SDS011;31949;51.404;-0.038;2023-06-14T10:28:58;12.00;;;5.40;;
46230;SDS011;31949;51.404;-0.038;2023-06-14T10:34:22;7.25;;;4.78;;
46230;SDS011;31949;51.404;-0.038;2023-06-14T10:39:38;10.30;;;5.95;;
46230;SDS011;31949;51.404;-0.038;2023-06-14T10:42:07;8.73;;;6.57;;
46230;SDS011;31949;51.404;-0.038;2023-06-14T10:44:42;8.85;;;5.13;;
46230;SDS011;31949;51.404;-0.038;2023-06-14T10:47:20;12.82;;;6.45;;
46230;SDS011;31949;51.404;-0.038;2023-06-14T10:52:29;12.88;;;5.90;;
46230;SDS011;31949;51.404;-0.038;2023-06-14T10:55:00;9.77;;;5.72;;
46230;SDS011;31949;51.404;-0.038;2023-06-14T10:57:39;15.68;;;5.55;;
46230;SDS011;31949;51.404;-0.038;2023-06-14T11:00:19;10.85;;;6.32;;
46230;SDS011;31949;51.404;-0.038;2023-06-14T11:05:55;9.73;;;5.55;;
46230;SDS011;31949;51.404;-0.038;2023-06-14T11:08:29;8.32;;;5.60;;
46230;SDS011;31949;51.404;-0.038;2023-06-14T11:11:19;10.10;;;5.75;;
46230;SDS011;31949;51.404;-0.038;2023-06-14T11:13:50;8.10;;;5.13;;
46230;SDS011;31949;51.404;-0.038;2023-06-14T11:16:21;9.13;;;5.72;;
46230;SDS011;31949;51.404;-0.038;2023-06-14T11:18:53;8.35;;;5.35;;
46230;SDS011;31949;51.404;-0.038;2023-06-14T11:21:20;7.05;;;4.82;;
46230;SDS011;31949;51.404;-0.038;2023-06-14T11:23:51;10.77;;;5.28;;
46230;SDS011;31949;51.404;-0.038;2023-06-14T11:26:29;10.13;;;6.20;;
46230;SDS011;31949;51.404;-0.038;2023-06-14T11:28:58;11.32;;;5.55;;
46230;SDS011;31949;51.404;-0.038;2023-06-14T11:31:27;10.25;;;5.55;;
46230;SDS011;31949;51.404;-0.038;2023-06-14T11:33:58;6.60;;;5.65;;
46230;SDS011;31949;51.404;-0.038;2023-06-14T11:36:29;13.05;;;6.90;;
46230;SDS011;31949;51.404;-0.038;2023-06-14T11:38:58;12.90;;;5.57;;
46230;SDS011;31949;51.404;-0.038;2023-06-14T11:44:02;12.60;;;5.68;;
46230;SDS011;31949;51.404;-0.038;2023-06-14T11:46:30;7.40;;;5.25;;
46230;SDS011;31949;51.404;-0.038;2023-06-14T11:48:57;6.93;;;5.07;;
46230;SDS011;31949;51.404;-0.038;2023-06-14T11:51:24;9.05;;;4.93;;
46230;SDS011;31949;51.404;-0.038;2023-06-14T11:53:52;8.50;;;5.05;;
46230;SDS011;31949;51.404;-0.038;2023-06-14T11:56:19;7.93;;;5.15;;
46230;SDS011;31949;51.404;-0.038;2023-06-14T11:58:47;8.65;;;5.45;;
46230;SDS011;31949;51.404;-0.038;2023-06-14T12:01:16;6.78;;;5.68;;
46230;SDS011;31949;51.404;-0.038;2023-06-14T12:03:47;11.60;;;5.88;;
46230;SDS011;31949;51.404;-0.038;2023-06-14T12:06:15;12.25;;;6.28;;
46230;SDS011;31949;51.404;-0.038;2023-06-14T12:08:45;7.78;;;5.70;;
46230;SDS011;31949;51.404;-0.038;2023-06-14T12:11:16;10.35;;;5.07;;
46230;SDS011;31949;51.404;-0.038;2023-06-14T12:13:43;10.45;;;5.07;;
46230;SDS011;31949;51.404;-0.038;2023-06-14T12:16:11;9.13;;;4.82;;
46230;SDS011;31949;51.404;-0.038;2023-06-14T12:18:39;5.20;;;4.45;;
46230;SDS011;31949;51.404;-0.038;2023-06-14T12:21:08;6.50;;;5.18;;
46230;SDS011;31949;51.404;-0.038;2023-06-14T12:23:42;9.35;;;5.75;;
46230;SDS011;31949;51.404;-0.038;2023-06-14T12:26:18;8.43;;;5.80;;
46230;SDS011;31949;51.404;-0.038;2023-06-14T12:28:46;9.75;;;5.15;;
46230;SDS011;31949;51.404;-0.038;2023-06-14T12:31:15;9.57;;;5.43;;
46230;SDS011;31949;51.404;-0.038;2023-06-14T12:33:43;13.25;;;5.35;;
46230;SDS011;31949;51.404;-0.038;2023-06-14T12:36:12;9.93;;;4.70;;
46230;SDS011;31949;51.404;-0.038;2023-06-14T12:38:40;9.65;;;5.10;;
46230;SDS011;31949;51.404;-0.038;2023-06-14T12:41:08;13.07;;;5.47;;
46230;SDS011;31949;51.404;-0.038;2023-06-14T12:43:35;9.90;;;5.97;;
46230;SDS011;31949;51.404;-0.038;2023-06-14T12:46:02;6.78;;;4.90;;
46230;SDS011;31949;51.404;-0.038;2023-06-14T12:48:29;11.77;;;5.93;;
46230;SDS011;31949;51.404;-0.038;2023-06-14T12:50:58;7.63;;;5.03;;
46230;SDS011;31949;51.404;-0.038;2023-06-14T12:53:25;6.95;;;4.68;;
46230;SDS011;31949;51.404;-0.038;2023-06-14T12:55:52;7.03;;;5.10;;
46230;SDS011;31949;51.404;-0.038;2023-06-14T12:58:19;10.70;;;5.75;;
46230;SDS011;31949;51.404;-0.038;2023-06-14T13:00:47;9.00;;;4.68;;
46230;SDS011;31949;51.404;-0.038;2023-06-14T13:03:14;8.93;;;5.05;;
46230;SDS011;31949;51.404;-0.038;2023-06-14T13:05:42;6.95;;;4.65;;
46230;SDS011;31949;51.404;-0.038;2023-06-14T13:08:09;8.25;;;4.90;;
46230;SDS011;31949;51.404;-0.038;2023-06-14T13:10:37;7.43;;;4.70;;
46230;SDS011;31949;51.404;-0.038;2023-06-14T13:13:04;5.65;;;4.72;;
46230;SDS011;31949;51.404;-0.038;2023-06-14T13:15:34;5.78;;;4.93;;
46230;SDS011;31949;51.404;-0.038;2023-06-14T13:18:01;7.63;;;4.70;;
46230;SDS011;31949;51.404;-0.038;2023-06-14T13:20:30;6.93;;;4.60;;
46230;SDS011;31949;51.404;-0.038;2023-06-14T13:22:57;6.63;;;4.60;;
46230;SDS011;31949;51.404;-0.038;2023-06-14T13:25:26;12.23;;;4.97;;
46230;SDS011;31949;51.404;-0.038;2023-06-14T13:27:53;6.20;;;5.43;;
46230;SDS011;31949;51.404;-0.038;2023-06-14T13:30:20;8.43;;;4.63;;
46230;SDS011;31949;51.404;-0.038;2023-06-14T13:32:48;7.78;;;4.82;;
46230;SDS011;31949;51.404;-0.038;2023-06-14T13:35:16;9.90;;;4.72;;
46230;SDS011;31949;51.404;-0.038;2023-06-14T13:37:44;7.22;;;5.25;;
46230;SDS011;31949;51.404;-0.038;2023-06-14T13:40:12;6.28;;;4.70;;
46230;SDS011;31949;51.404;-0.038;2023-06-14T13:42:40;4.72;;;4.25;;
46230;SDS011;31949;51.404;-0.038;2023-06-14T13:45:07;6.60;;;4.68;;
46230;SDS011;31949;51.404;-0.038;2023-06-14T13:47:38;6.00;;;4.70;;
46230;SDS011;31949;51.404;-0.038;2023-06-14T13:50:05;6.32;;;4.93;;
46230;SDS011;31949;51.404;-0.038;2023-06-14T13:52:33;7.85;;;4.78;;
46230;SDS011;31949;51.404;-0.038;2023-06-14T13:55:01;7.55;;;5.53;;
46230;SDS011;31949;51.404;-0.038;2023-06-14T13:57:29;7.28;;;4.93;;
46230;SDS011;31949;51.404;-0.038;2023-06-14T13:59:56;8.65;;;4.68;;
46230;SDS011;31949;51.404;-0.038;2023-06-14T14:02:38;8.57;;;4.87;;
46230;SDS011;31949;51.404;-0.038;2023-06-14T14:05:06;7.15;;;5.18;;
46230;SDS011;31949;51.404;-0.038;2023-06-14T14:07:34;5.40;;;4.90;;
46230;SDS011;31949;51.404;-0.038;2023-06-14T14:10:03;5.32;;;4.85;;
46230;SDS011;31949;51.404;-0.038;2023-06-14T14:12:30;8.63;;;4.93;;
46230;SDS011;31949;51.404;-0.038;2023-06-14T14:14:57;6.47;;;4.45;;
46230;SDS011;31949;51.404;-0.038;2023-06-14T14:17:25;8.15;;;5.30;;
46230;SDS011;31949;51.404;-0.038;2023-06-14T14:19:53;7.13;;;5.50;;
46230;SDS011;31949;51.404;-0.038;2023-06-14T14:22:20;6.03;;;5.28;;
46230;SDS011;31949;51.404;-0.038;2023-06-14T14:24:47;10.30;;;4.90;;
46230;SDS011;31949;51.404;-0.038;2023-06-14T14:27:14;10.77;;;4.90;;
46230;SDS011;31949;51.404;-0.038;2023-06-14T14:29:42;6.40;;;4.60;;
46230;SDS011;31949;51.404;-0.038;2023-06-14T14:32:09;7.32;;;4.05;;
46230;SDS011;31949;51.404;-0.038;2023-06-14T14:34:40;6.63;;;4.68;;
46230;SDS011;31949;51.404;-0.038;2023-06-14T14:37:07;10.30;;;5.47;;
46230;SDS011;31949;51.404;-0.038;2023-06-14T14:39:36;7.32;;;4.80;;
46230;SDS011;31949;51.404;-0.038;2023-06-14T14:42:04;5.80;;;5.30;;
46230;SDS011;31949;51.404;-0.038;2023-06-14T14:44:33;6.00;;;4.53;;
46230;SDS011;31949;51.404;-0.038;2023-06-14T14:47:00;6.15;;;4.40;;
46230;SDS011;31949;51.404;-0.038;2023-06-14T14:49:28;6.35;;;4.85;;
46230;SDS011;31949;51.404;-0.038;2023-06-14T14:51:55;5.13;;;4.63;;
46230;SDS011;31949;51.404;-0.038;2023-06-14T14:54:30;7.05;;;4.45;;
46230;SDS011;31949;51.404;-0.038;2023-06-14T14:56:58;6.43;;;4.32;;
46230;SDS011;31949;51.404;-0.038;2023-06-14T14:59:25;5.53;;;4.07;;
46230;SDS011;31949;51.404;-0.038;2023-06-14T15:01:52;10.48;;;5.00;;
46230;SDS011;31949;51.404;-0.038;2023-06-14T15:04:19;4.95;;;4.38;;
46230;SDS011;31949;51.404;-0.038;2023-06-14T15:06:46;5.70;;;3.90;;